Nearby METAR Reports

 

KBFI - Boeing Field Seattle, WA, USA
Distance from station: SE 4mi, 7km
Updated: Mon, 02/19/2018 10:53pm PST
Clear
Clear
 Wind from SE
Wind: SE 5 mph , 7 km/h
Temperature: 30°F , -1°C
Wind Chill: 25°F , -4°C
Dew Point: 18°F , -8°C
Humidity: 59%
Barometer: 30.23 inHg , 1023.7 hPa
Clouds: Clear
Visibility: 10 miles , 16 km
2018/02/20 06:53 KBFI 200653Z 13004KT 10SM CLR M01/M08 A3023 RMK AO2 SLP238 T10111083
KSEA - Seattle/Metro, WA, USA
Distance from station: NE 5mi, 8km
Updated: Mon, 02/19/2018 10:53pm PST
Overcast
Overcast
 Wind from SE
Wind: SE 9 mph , 15 km/h
Temperature: 30°F , -1°C
Wind Chill: 22°F , -6°C
Dew Point: 18°F , -8°C
Humidity: 59%
Barometer: 30.21 inHg , 1023 hPa
Clouds: Overcast
Visibility: 10 miles , 16 km
Cloud details: Mostly cloudy 4500 ft
Overcast 14000 ft
2018/02/20 06:53 KSEA 200653Z 14008KT 10SM BKN045 OVC140 M01/M08 A3021 RMK AO2 SLP239 T10111083
 
KTIW - Tacoma, WA, USA
Distance from station: S 30mi, 45km
Updated: Mon, 02/19/2018 10:53pm PST
Mostly cloudy
Mostly cloudy
 Wind from SSE
Wind: SSE 6 mph , 9 km/h
Temperature: 30°F , -1°C
Wind Chill: 24°F , -4°C
Dew Point: 19°F , -7°C
Humidity: 64%
Barometer: 30.21 inHg , 1023 hPa
Clouds: Mostly cloudy
Visibility: 10 miles , 16 km
Cloud details: Mostly cloudy 4300 ft
2018/02/20 06:53 KTIW 200653Z AUTO 15005KT 10SM BKN043 M01/M07 A3021 RMK AO2 SLP236 T10111072
KCLM - Port Angeles, WA, USA
Distance from station: NW 70mi, 100km
Updated: Mon, 02/19/2018 10:53pm PST
Few Clouds
Few Clouds
 Wind from SW
Wind: SW 6 mph , 9 km/h
Temperature: 27°F , -3°C
Wind Chill: 20°F , -7°C
Dew Point: 19°F , -7°C
Humidity: 74%
Barometer: 30.19 inHg , 1022.4 hPa
Clouds: Few Clouds
Visibility: 10 miles , 16 km
Cloud details: Few Clouds 12000 ft
2018/02/20 06:53 KCLM 200653Z AUTO 23005KT 10SM FEW120 M03/M07 A3019 RMK AO2 SLP227 T10331067